createdAt,value
2023-05-19T00:00:15.759Z,13.75
2023-05-19T00:02:45.627Z,13.79
2023-05-19T00:05:15.220Z,13.86
2023-05-19T00:07:45.468Z,13.87
2023-05-19T00:10:14.403Z,14.00
2023-05-19T00:12:44.044Z,13.93
2023-05-19T00:15:14.757Z,13.85
2023-05-19T00:17:43.195Z,13.86
2023-05-19T00:20:12.744Z,13.87
2023-05-19T00:22:40.697Z,13.86
2023-05-19T00:25:09.343Z,13.92
2023-05-19T00:27:37.248Z,14.00
2023-05-19T00:30:06.117Z,13.92
2023-05-19T00:32:35.881Z,13.90
2023-05-19T00:35:03.883Z,14.12
2023-05-19T00:37:31.887Z,13.99
2023-05-19T00:39:59.877Z,14.08
2023-05-19T00:42:27.955Z,14.03
2023-05-19T00:44:56.087Z,13.98
2023-05-19T00:47:23.991Z,13.97
2023-05-19T00:49:53.351Z,13.93
2023-05-19T00:52:21.470Z,13.84
2023-05-19T00:54:51.255Z,13.81
2023-05-19T00:57:19.666Z,13.85
2023-05-19T00:59:48.037Z,13.90
2023-05-19T01:02:16.192Z,13.84
2023-05-19T01:04:47.098Z,13.90
2023-05-19T01:07:16.905Z,13.75
2023-05-19T01:09:45.245Z,13.97
2023-05-19T01:12:13.192Z,13.92
2023-05-19T01:14:41.301Z,13.82
2023-05-19T01:17:14.508Z,13.85
2023-05-19T01:20:02.175Z,13.80
2023-05-19T01:22:44.025Z,13.91
2023-05-19T01:25:59.613Z,13.83
2023-05-19T01:28:59.837Z,13.82
2023-05-19T01:31:29.693Z,13.78
2023-05-19T01:33:59.235Z,13.85
2023-05-19T01:36:27.848Z,13.84
2023-05-19T01:38:58.615Z,13.87
2023-05-19T01:41:28.554Z,13.91
2023-05-19T01:43:58.100Z,13.86
2023-05-19T01:46:26.471Z,13.88
2023-05-19T01:48:56.325Z,13.85
2023-05-19T01:51:24.396Z,13.88
2023-05-19T01:53:52.380Z,13.91
2023-05-19T01:56:33.776Z,13.91
2023-05-19T01:59:08.409Z,13.85
2023-05-19T02:01:46.243Z,13.84
2023-05-19T02:04:24.423Z,13.83
2023-05-19T02:07:01.342Z,13.85
2023-05-19T02:09:39.719Z,13.82
2023-05-19T02:12:13.437Z,13.78
2023-05-19T02:14:46.573Z,13.82
2023-05-19T02:17:17.028Z,13.70
2023-05-19T02:19:46.476Z,13.35
2023-05-19T02:22:14.414Z,13.90
2023-05-19T02:24:42.609Z,13.92
2023-05-19T02:27:10.730Z,13.97
2023-05-19T02:29:38.711Z,13.96
2023-05-19T02:32:08.166Z,13.92
2023-05-19T02:34:36.213Z,13.74
2023-05-19T02:37:07.704Z,13.65
2023-05-19T02:39:35.979Z,13.73
2023-05-19T02:42:04.084Z,13.79
2023-05-19T02:44:31.984Z,13.61
2023-05-19T02:47:00.180Z,13.72
2023-05-19T02:49:30.913Z,13.73
2023-05-19T02:51:58.946Z,13.75
2023-05-19T02:54:28.233Z,13.73
2023-05-19T02:56:56.273Z,13.67
2023-05-19T02:59:25.612Z,13.81
2023-05-19T03:01:56.973Z,13.71
2023-05-19T03:04:24.961Z,13.75
2023-05-19T03:06:54.213Z,13.78
2023-05-19T03:09:22.176Z,13.76
2023-05-19T03:11:51.598Z,13.71
2023-05-19T03:14:24.011Z,13.72
2023-05-19T03:16:52.399Z,13.71
2023-05-19T03:19:20.739Z,13.72
2023-05-19T03:21:49.697Z,13.68
2023-05-19T03:24:17.663Z,13.70
2023-05-19T03:26:46.008Z,13.70
2023-05-19T03:29:15.319Z,13.76
2023-05-19T03:31:43.238Z,13.72
2023-05-19T03:34:11.213Z,13.80
2023-05-19T03:36:39.877Z,13.81
2023-05-19T03:39:08.067Z,13.85
2023-05-19T03:41:36.009Z,13.80
2023-05-19T03:44:04.013Z,13.73
2023-05-19T03:46:33.282Z,13.73
2023-05-19T03:49:01.397Z,13.77
2023-05-19T03:51:30.080Z,13.77
2023-05-19T03:53:58.285Z,13.88
2023-05-19T03:56:27.577Z,13.87
2023-05-19T03:58:56.021Z,13.90
2023-05-19T04:01:23.946Z,13.91
2023-05-19T04:03:53.247Z,13.93
2023-05-19T04:06:21.265Z,13.97
2023-05-19T04:08:49.257Z,13.99
2023-05-19T04:11:17.204Z,14.03
2023-05-19T04:13:45.354Z,14.08
2023-05-19T04:16:13.493Z,14.08
2023-05-19T04:18:41.490Z,14.08
2023-05-19T04:21:10.896Z,14.02
2023-05-19T04:23:38.813Z,13.98
2023-05-19T04:26:09.866Z,14.00
2023-05-19T04:28:40.119Z,14.06
2023-05-19T04:31:11.000Z,14.12
2023-05-19T04:33:39.310Z,14.06
2023-05-19T04:36:10.798Z,14.20
2023-05-19T04:38:40.950Z,14.27
2023-05-19T04:41:10.911Z,14.23
2023-05-19T04:43:41.790Z,14.22
2023-05-19T04:46:13.834Z,14.36
2023-05-19T04:48:42.834Z,14.42
2023-05-19T04:51:14.409Z,14.51
2023-05-19T04:53:44.760Z,14.66
2023-05-19T04:56:15.511Z,14.85
2023-05-19T04:58:44.939Z,15.05
2023-05-19T05:01:15.906Z,15.15
2023-05-19T05:03:44.457Z,15.25
2023-05-19T05:06:12.627Z,15.58
2023-05-19T05:08:41.459Z,15.74
2023-05-19T05:11:12.014Z,16.01
2023-05-19T05:13:40.506Z,16.13
2023-05-19T05:16:09.593Z,16.22
2023-05-19T05:18:38.897Z,16.28
2023-05-19T05:21:08.210Z,16.48
2023-05-19T05:23:36.859Z,16.44
2023-05-19T05:26:10.846Z,16.54
2023-05-19T05:28:40.212Z,16.51
2023-05-19T05:31:08.104Z,16.65
2023-05-19T05:33:36.093Z,16.68
2023-05-19T05:36:04.658Z,16.75
2023-05-19T05:38:32.901Z,16.78
2023-05-19T05:41:00.928Z,16.71
2023-05-19T05:43:28.863Z,16.79
2023-05-19T05:45:58.266Z,16.84
2023-05-19T05:48:26.979Z,16.99
2023-05-19T05:50:55.768Z,16.94
2023-05-19T05:53:26.528Z,17.17
2023-05-19T05:55:55.203Z,17.22
2023-05-19T05:58:24.292Z,17.25
2023-05-19T06:00:53.597Z,17.19
2023-05-19T06:03:24.544Z,17.42
2023-05-19T06:05:52.821Z,17.50
2023-05-19T06:08:20.882Z,17.55
2023-05-19T06:10:48.849Z,17.54
2023-05-19T06:13:22.307Z,17.66
2023-05-19T06:15:50.438Z,17.73
2023-05-19T06:18:18.513Z,17.82
2023-05-19T06:20:47.868Z,17.69
2023-05-19T06:23:15.902Z,17.73
2023-05-19T06:25:44.070Z,17.58
2023-05-19T06:28:12.267Z,17.40
2023-05-19T06:30:40.185Z,17.45
2023-05-19T06:33:08.359Z,17.45
2023-05-19T06:35:36.366Z,17.40
2023-05-19T06:38:05.691Z,17.70
2023-05-19T06:40:34.021Z,18.03
2023-05-19T06:43:02.146Z,18.40
2023-05-19T06:45:30.102Z,18.35
2023-05-19T06:47:58.509Z,18.15
2023-05-19T06:50:26.635Z,18.17
2023-05-19T06:52:54.625Z,18.26
2023-05-19T06:55:24.159Z,18.43
2023-05-19T06:57:52.135Z,18.64
2023-05-19T07:00:32.032Z,18.55
2023-05-19T07:03:00.329Z,18.64
2023-05-19T07:05:28.482Z,18.58
2023-05-19T07:07:56.493Z,18.59
2023-05-19T07:10:26.001Z,18.59
2023-05-19T07:12:54.053Z,18.55
2023-05-19T07:15:22.093Z,18.66
2023-05-19T07:17:50.120Z,18.71
2023-05-19T07:20:18.251Z,18.74
2023-05-19T07:22:46.219Z,18.86
2023-05-19T07:25:14.115Z,18.79
2023-05-19T07:27:43.405Z,18.70
2023-05-19T07:30:12.206Z,18.83
2023-05-19T07:32:40.175Z,19.11
2023-05-19T07:35:08.545Z,19.13
2023-05-19T07:37:36.470Z,19.25
2023-05-19T07:40:05.111Z,19.38
2023-05-19T07:42:33.126Z,19.50
2023-05-19T07:45:03.374Z,19.61
2023-05-19T07:47:31.920Z,19.78
2023-05-19T07:49:59.867Z,19.49
2023-05-19T07:52:27.895Z,19.64
2023-05-19T07:54:55.781Z,19.51
2023-05-19T07:57:23.703Z,19.63
2023-05-19T07:59:51.698Z,19.81
2023-05-19T08:02:21.060Z,19.75
2023-05-19T08:04:49.592Z,19.86
2023-05-19T08:07:17.576Z,19.97
2023-05-19T08:09:45.474Z,19.87
2023-05-19T08:12:13.444Z,19.91
2023-05-19T08:14:41.367Z,19.96
2023-05-19T08:17:09.290Z,20.00
2023-05-19T08:19:38.622Z,19.98
2023-05-19T08:22:06.617Z,20.07
2023-05-19T08:24:34.607Z,20.13
2023-05-19T08:27:02.625Z,20.21
2023-05-19T08:29:30.755Z,20.29
2023-05-19T08:31:59.537Z,20.33
2023-05-19T08:34:27.452Z,20.38
2023-05-19T08:36:57.819Z,20.34
2023-05-19T08:39:27.105Z,20.45
2023-05-19T08:41:55.305Z,20.55
2023-05-19T08:44:23.670Z,20.68
2023-05-19T08:46:54.150Z,20.79
2023-05-19T08:49:28.327Z,20.94
2023-05-19T08:52:03.753Z,21.08
2023-05-19T08:54:40.222Z,21.16
2023-05-19T08:57:10.067Z,20.94
2023-05-19T08:59:38.702Z,21.25
2023-05-19T09:04:35.932Z,21.07
2023-05-19T09:07:05.570Z,21.23
2023-05-19T09:09:33.958Z,21.49
2023-05-19T09:12:02.057Z,21.61
2023-05-19T09:14:30.869Z,21.58
2023-05-19T09:16:58.935Z,21.33
2023-05-19T09:19:30.176Z,21.35
2023-05-19T09:22:03.324Z,21.31
2023-05-19T09:24:35.036Z,21.09
2023-05-19T09:27:03.083Z,21.40
2023-05-19T09:29:31.144Z,21.65
2023-05-19T09:32:01.642Z,21.83
2023-05-19T09:34:29.675Z,21.80
2023-05-19T09:36:57.846Z,21.91
2023-05-19T09:39:26.233Z,22.19
2023-05-19T09:41:58.540Z,22.51
2023-05-19T09:44:29.453Z,23.06
2023-05-19T09:46:58.727Z,23.53
2023-05-19T09:49:29.652Z,23.87
2023-05-19T09:51:58.568Z,23.59
2023-05-19T09:54:29.892Z,22.71
2023-05-19T09:57:03.668Z,22.27
2023-05-19T09:59:33.786Z,21.97
2023-05-19T10:02:03.042Z,22.00
2023-05-19T10:04:32.418Z,21.86
2023-05-19T10:07:01.614Z,21.57
2023-05-19T10:09:31.026Z,21.62
2023-05-19T10:12:01.245Z,21.05
2023-05-19T10:14:30.627Z,21.01
2023-05-19T10:16:59.794Z,20.99
2023-05-19T10:19:29.689Z,21.20
2023-05-19T10:21:58.068Z,21.31
2023-05-19T10:24:26.340Z,21.32
2023-05-19T10:26:58.026Z,21.38
2023-05-19T10:29:34.570Z,21.58
2023-05-19T10:32:08.264Z,21.79
2023-05-19T10:35:13.928Z,22.03
2023-05-19T10:37:47.595Z,22.38
2023-05-19T10:40:23.587Z,22.72
2023-05-19T10:43:07.957Z,23.01
2023-05-19T10:45:43.273Z,22.89
2023-05-19T10:48:12.760Z,22.63
2023-05-19T10:50:40.917Z,22.49
2023-05-19T10:53:18.145Z,22.22
2023-05-19T10:55:47.879Z,21.34
2023-05-19T10:58:15.809Z,21.21
2023-05-19T11:00:45.188Z,20.94
2023-05-19T11:03:14.800Z,20.90
2023-05-19T11:05:45.542Z,20.86
2023-05-19T11:08:14.228Z,21.13
2023-05-19T11:10:46.021Z,21.61
2023-05-19T11:13:23.013Z,21.80
2023-05-19T11:15:53.702Z,22.32
2023-05-19T11:18:22.120Z,22.66
2023-05-19T11:20:59.153Z,22.80
2023-05-19T11:23:27.281Z,22.70
2023-05-19T11:25:55.274Z,22.49
2023-05-19T11:28:26.636Z,22.20
2023-05-19T11:30:59.089Z,22.06
2023-05-19T11:33:27.862Z,21.86
2023-05-19T11:35:58.959Z,21.42
2023-05-19T11:38:28.393Z,20.86
2023-05-19T11:40:57.613Z,20.87
2023-05-19T11:43:26.170Z,20.84
2023-05-19T11:45:56.908Z,20.90
2023-05-19T11:48:27.394Z,20.91
2023-05-19T11:50:56.795Z,21.31
2023-05-19T11:53:24.802Z,21.60
2023-05-19T11:55:52.938Z,22.02
2023-05-19T11:58:27.303Z,22.43
2023-05-19T12:00:56.784Z,22.61
2023-05-19T12:03:28.799Z,22.77
2023-05-19T12:05:57.836Z,22.98
2023-05-19T12:08:27.246Z,23.16
2023-05-19T12:10:56.242Z,23.30
2023-05-19T12:13:24.233Z,23.25
2023-05-19T12:15:53.008Z,23.42
2023-05-19T12:18:22.435Z,23.62
2023-05-19T12:20:50.751Z,23.78
2023-05-19T12:23:18.988Z,23.84
2023-05-19T12:25:47.211Z,23.93
2023-05-19T12:28:17.238Z,23.97
2023-05-19T12:30:49.174Z,24.04
2023-05-19T12:33:17.287Z,23.88
2023-05-19T12:35:47.731Z,23.68
2023-05-19T12:38:15.984Z,23.66
2023-05-19T12:40:44.370Z,23.72
2023-05-19T12:43:21.017Z,23.89
2023-05-19T12:45:49.187Z,23.87
2023-05-19T12:48:17.340Z,23.97
2023-05-19T12:50:46.889Z,23.79
2023-05-19T12:53:16.042Z,23.79
2023-05-19T12:55:46.061Z,24.01
2023-05-19T12:58:16.731Z,23.30
2023-05-19T13:00:49.810Z,23.53
2023-05-19T13:03:19.722Z,23.86
2023-05-19T13:05:50.601Z,24.12
2023-05-19T13:08:21.617Z,24.21
2023-05-19T13:10:50.212Z,24.18
2023-05-19T13:13:18.681Z,24.17
2023-05-19T13:15:49.415Z,24.29
2023-05-19T13:18:18.394Z,24.08
2023-05-19T13:20:47.264Z,23.41
2023-05-19T13:23:17.821Z,23.20
2023-05-19T13:25:45.833Z,23.22
2023-05-19T13:28:14.073Z,23.33
2023-05-19T13:30:44.726Z,23.48
2023-05-19T13:33:13.103Z,23.79
2023-05-19T13:35:41.276Z,23.76
2023-05-19T13:38:10.857Z,23.10
2023-05-19T13:40:41.033Z,23.08
2023-05-19T13:43:09.923Z,22.57
2023-05-19T13:45:38.329Z,22.70
2023-05-19T13:48:07.893Z,22.47
2023-05-19T13:50:36.134Z,22.47
2023-05-19T13:53:04.746Z,22.46
2023-05-19T13:55:33.051Z,22.42
2023-05-19T13:58:03.445Z,22.36
2023-05-19T14:00:32.552Z,22.41
2023-05-19T14:03:00.983Z,22.89
2023-05-19T14:05:29.296Z,23.13
2023-05-19T14:07:58.080Z,23.38
2023-05-19T14:10:26.339Z,23.64
2023-05-19T14:13:25.872Z,23.11
2023-05-19T14:15:44.343Z,22.71
2023-05-19T14:18:12.492Z,22.01
2023-05-19T14:20:40.543Z,21.42
2023-05-19T14:23:08.435Z,21.02
2023-05-19T14:25:36.344Z,21.24
2023-05-19T14:28:04.312Z,20.92
2023-05-19T14:30:32.685Z,20.34
2023-05-19T14:33:02.285Z,19.83
2023-05-19T14:35:30.311Z,19.79
2023-05-19T14:37:58.410Z,19.64
2023-05-19T14:40:26.379Z,19.67
2023-05-19T14:42:54.276Z,19.48
2023-05-19T14:45:22.253Z,19.44
2023-05-19T14:47:50.259Z,19.37
2023-05-19T14:50:19.820Z,19.34
2023-05-19T14:52:47.818Z,19.47
2023-05-19T14:55:15.806Z,19.62
2023-05-19T14:57:43.887Z,19.62
2023-05-19T15:00:12.747Z,19.62
2023-05-19T15:02:41.009Z,19.62
2023-05-19T15:05:09.842Z,19.53
2023-05-19T15:07:39.191Z,19.43
2023-05-19T15:10:07.898Z,19.41
2023-05-19T15:12:36.014Z,19.24
2023-05-19T15:15:05.141Z,18.77
2023-05-19T15:17:33.291Z,18.69
2023-05-19T15:20:01.402Z,18.58
2023-05-19T15:22:29.458Z,18.40
2023-05-19T15:24:58.816Z,18.55
2023-05-19T15:27:26.779Z,18.58
2023-05-19T15:29:54.794Z,18.61
2023-05-19T15:32:22.760Z,18.79
2023-05-19T15:34:50.862Z,18.55
2023-05-19T15:37:18.836Z,18.70
2023-05-19T15:39:46.819Z,18.78
2023-05-19T15:42:16.217Z,18.89
2023-05-19T15:44:45.976Z,18.77
2023-05-19T15:47:13.988Z,18.88
2023-05-19T15:49:41.924Z,18.82
2023-05-19T15:52:09.867Z,18.87
2023-05-19T15:54:37.871Z,18.92
2023-05-19T15:57:06.072Z,18.95
2023-05-19T15:59:35.406Z,19.13
2023-05-19T16:02:03.654Z,19.36
2023-05-19T16:04:31.707Z,19.57
2023-05-19T16:06:59.636Z,19.54
2023-05-19T16:09:27.542Z,19.57
2023-05-19T16:11:55.494Z,19.53
2023-05-19T16:14:24.503Z,19.67
2023-05-19T16:16:53.822Z,19.68
2023-05-19T16:19:21.990Z,19.73
2023-05-19T16:21:50.005Z,19.67
2023-05-19T16:24:17.938Z,19.68
2023-05-19T16:26:46.441Z,19.65
2023-05-19T16:29:14.393Z,19.59
2023-05-19T16:31:42.427Z,19.68
2023-05-19T16:34:11.777Z,19.48
2023-05-19T16:36:39.718Z,19.59
2023-05-19T16:39:07.712Z,19.57
2023-05-19T16:41:35.704Z,19.49
2023-05-19T16:44:03.790Z,19.09
2023-05-19T16:46:31.841Z,19.06
2023-05-19T16:48:59.903Z,19.38
2023-05-19T16:51:29.311Z,19.32
2023-05-19T16:53:57.304Z,19.42
2023-05-19T16:56:25.371Z,19.44
2023-05-19T16:58:54.727Z,19.42
2023-05-19T17:01:22.781Z,19.38
2023-05-19T17:03:50.784Z,19.39
2023-05-19T17:06:18.783Z,19.11
2023-05-19T17:08:48.116Z,19.10
2023-05-19T17:11:16.081Z,19.21
2023-05-19T17:13:46.355Z,18.69
2023-05-19T17:16:14.350Z,18.67
2023-05-19T17:18:43.755Z,18.96
2023-05-19T17:21:11.922Z,19.04
2023-05-19T17:23:39.937Z,18.98
2023-05-19T17:26:09.264Z,18.87
2023-05-19T17:28:37.225Z,19.03
2023-05-19T17:31:11.174Z,19.10
2023-05-19T17:33:39.254Z,19.15
2023-05-19T17:36:08.534Z,19.14
2023-05-19T17:38:40.235Z,19.10
2023-05-19T17:41:11.032Z,19.16
2023-05-19T17:43:40.048Z,19.20
2023-05-19T17:46:08.362Z,19.22
2023-05-19T17:48:36.917Z,19.19
2023-05-19T17:51:07.098Z,19.21
2023-05-19T17:53:36.660Z,19.17
2023-05-19T17:56:10.134Z,19.19
2023-05-19T17:58:41.340Z,19.20
2023-05-19T18:01:09.910Z,19.04
2023-05-19T18:03:38.489Z,18.94
2023-05-19T18:06:07.953Z,18.96
2023-05-19T18:08:37.796Z,19.03
2023-05-19T18:11:06.157Z,19.08
2023-05-19T18:13:34.093Z,19.00
2023-05-19T18:16:03.382Z,19.05
2023-05-19T18:18:31.435Z,19.09
2023-05-19T18:20:59.365Z,19.09
2023-05-19T18:23:27.353Z,19.02
2023-05-19T18:25:55.420Z,18.93
2023-05-19T18:28:24.691Z,18.83
2023-05-19T18:31:00.202Z,18.83
2023-05-19T18:33:31.283Z,18.66
2023-05-19T18:35:59.950Z,18.81
2023-05-19T18:38:28.113Z,18.82
2023-05-19T18:40:56.748Z,18.77
2023-05-19T18:43:24.803Z,18.23
2023-05-19T18:45:53.002Z,18.15
2023-05-19T18:48:22.546Z,17.96
2023-05-19T18:50:51.997Z,17.98
2023-05-19T18:53:20.142Z,18.06
2023-05-19T18:55:48.082Z,18.16
2023-05-19T18:58:16.042Z,18.25
2023-05-19T19:00:44.081Z,18.34
2023-05-19T19:03:12.261Z,18.46
2023-05-19T19:05:40.742Z,18.50
2023-05-19T19:08:10.097Z,18.46
2023-05-19T19:10:40.491Z,18.34
2023-05-19T19:13:08.453Z,18.32
2023-05-19T19:15:36.456Z,18.25
2023-05-19T19:18:05.509Z,18.23
2023-05-19T19:20:35.004Z,18.18
2023-05-19T19:23:06.388Z,18.26
2023-05-19T19:25:36.288Z,18.27
2023-05-19T19:28:04.230Z,18.27
2023-05-19T19:30:32.520Z,18.27
2023-05-19T19:33:00.820Z,18.24
2023-05-19T19:35:28.826Z,18.21
2023-05-19T19:37:57.024Z,18.10
2023-05-19T19:40:25.441Z,18.19
2023-05-19T19:42:54.757Z,18.10
2023-05-19T19:45:22.717Z,18.13
2023-05-19T19:47:51.722Z,18.07
2023-05-19T19:50:19.978Z,17.99
2023-05-19T19:52:47.862Z,18.02
2023-05-19T19:55:16.027Z,18.04
2023-05-19T19:57:45.715Z,17.99
2023-05-19T20:00:16.685Z,17.97
2023-05-19T20:03:02.931Z,17.91
2023-05-19T20:05:32.767Z,17.86
2023-05-19T20:08:00.721Z,17.79
2023-05-19T20:10:28.703Z,17.70
2023-05-19T20:12:58.879Z,17.57
2023-05-19T20:15:28.226Z,17.59
2023-05-19T20:17:56.352Z,17.69
2023-05-19T20:20:24.283Z,17.55
2023-05-19T20:22:52.309Z,17.41
2023-05-19T20:25:20.260Z,17.37
2023-05-19T20:27:48.261Z,17.33
2023-05-19T20:30:16.453Z,17.33
2023-05-19T20:32:46.658Z,17.26
2023-05-19T20:35:15.062Z,17.26
2023-05-19T20:37:43.195Z,17.11
2023-05-19T20:40:11.689Z,17.18
2023-05-19T20:42:40.678Z,17.21
2023-05-19T20:45:09.428Z,17.17
2023-05-19T20:47:37.556Z,17.32
2023-05-19T20:50:08.036Z,17.14
2023-05-19T20:52:36.055Z,17.04
2023-05-19T20:55:04.280Z,17.02
2023-05-19T20:57:32.210Z,17.00
2023-05-19T21:00:00.768Z,16.83
2023-05-19T21:02:28.799Z,16.83
2023-05-19T21:04:56.780Z,16.68
2023-05-19T21:07:26.350Z,16.71
2023-05-19T21:09:54.457Z,16.73
2023-05-19T21:12:25.157Z,16.79
2023-05-19T21:14:53.081Z,16.77
2023-05-19T21:17:21.507Z,16.73
2023-05-19T21:19:50.760Z,16.65
2023-05-19T21:22:18.798Z,16.68
2023-05-19T21:24:48.077Z,16.75
2023-05-19T21:27:16.135Z,16.77
2023-05-19T21:29:44.035Z,16.61
2023-05-19T21:32:12.047Z,16.66
2023-05-19T21:34:39.986Z,16.64
2023-05-19T21:37:07.956Z,16.57
2023-05-19T21:39:36.140Z,16.60
2023-05-19T21:42:06.455Z,16.56
2023-05-19T21:44:34.395Z,16.51
2023-05-19T21:47:02.388Z,16.37
2023-05-19T21:49:31.155Z,16.55
2023-05-19T21:51:59.234Z,16.47
2023-05-19T21:54:27.289Z,16.48
2023-05-19T21:56:55.265Z,16.39
2023-05-19T21:59:24.902Z,16.42
2023-05-19T22:01:53.112Z,16.23
2023-05-19T22:04:21.793Z,16.37
2023-05-19T22:06:49.830Z,16.29
2023-05-19T22:09:18.146Z,16.31
2023-05-19T22:11:46.364Z,16.33
2023-05-19T22:14:14.453Z,16.26
2023-05-19T22:16:43.988Z,16.21
2023-05-19T22:19:12.879Z,16.22
2023-05-19T22:21:41.126Z,16.24
2023-05-19T22:24:09.040Z,16.21
2023-05-19T22:26:37.088Z,16.17
2023-05-19T22:29:05.094Z,16.08
2023-05-19T22:31:33.042Z,16.05
2023-05-19T22:34:02.382Z,16.04
2023-05-19T22:36:31.256Z,16.08
2023-05-19T22:38:59.228Z,16.01
2023-05-19T22:41:27.381Z,15.92
2023-05-19T22:43:55.325Z,15.99
2023-05-19T22:46:23.236Z,15.89
2023-05-19T22:48:51.210Z,15.98
2023-05-19T22:51:20.618Z,16.00
2023-05-19T22:53:48.975Z,15.94
2023-05-19T22:56:17.905Z,15.82
2023-05-19T22:58:45.809Z,15.93
2023-05-19T23:01:13.810Z,15.75
2023-05-19T23:03:41.753Z,15.47
2023-05-19T23:06:09.769Z,15.39
2023-05-19T23:08:39.157Z,15.33
2023-05-19T23:11:07.073Z,15.44
2023-05-19T23:13:35.000Z,15.44
2023-05-19T23:16:03.033Z,15.46
2023-05-19T23:18:31.146Z,15.39
2023-05-19T23:20:59.061Z,15.36
2023-05-19T23:23:28.187Z,15.34
2023-05-19T23:25:58.567Z,15.42
2023-05-19T23:28:26.469Z,15.50
2023-05-19T23:30:54.617Z,15.39
2023-05-19T23:33:22.718Z,15.20
2023-05-19T23:35:50.913Z,15.12
2023-05-19T23:38:18.914Z,15.08
2023-05-19T23:40:46.898Z,15.10
2023-05-19T23:43:16.227Z,14.94
2023-05-19T23:45:44.177Z,14.86
2023-05-19T23:48:12.232Z,14.79
2023-05-19T23:50:40.239Z,14.69
2023-05-19T23:53:08.239Z,14.90
2023-05-19T23:55:36.309Z,14.81
2023-05-19T23:58:04.357Z,14.80
